Time;durP1;ratioP1;P1;durP2;ratioP2;P2;SDS_P1;SDS_P2;PMS_P1;PMS_P2;Temp;Humidity;BMP_temperature;BMP_pressure;BME280_temperature;BME280_humidity;BME280_pressure;Samples;Min_cycle;Max_cycle;Signal;HPM_P1;HPM_P2
2021/05/12 00:02:07;;;;;;;1.80;0.80;;;10.20;99.90;;;;;;5002649;28;20563;-57
2021/05/12 00:04:32;;;;;;;2.60;0.90;;;10.20;99.90;;;;;;5008386;28;20439;-57
2021/05/12 00:06:58;;;;;;;0.97;0.97;;;10.20;99.90;;;;;;4996817;28;20238;-56
2021/05/12 00:09:24;;;;;;;2.33;1.00;;;10.20;99.90;;;;;;5000815;28;20215;-57
2021/05/12 00:11:49;;;;;;;0.83;0.83;;;10.10;99.90;;;;;;5002430;28;20192;-56
2021/05/12 00:14:15;;;;;;;1.03;0.93;;;10.10;99.90;;;;;;5007998;28;20274;-56
2021/05/12 00:16:41;;;;;;;0.90;0.90;;;10.10;99.90;;;;;;5009654;28;20386;-57
2021/05/12 00:19:07;;;;;;;1.03;0.90;;;10.10;99.90;;;;;;5006002;28;20573;-56
2021/05/12 00:24:01;;;;;;;0.90;0.80;;;10.10;99.90;;;;;;4996027;28;20181;-56
2021/05/12 00:26:39;;;;;;;5.23;1.13;;;10.10;99.90;;;;;;5000932;28;20279;-56
2021/05/12 00:29:07;;;;;;;2.10;0.80;;;10.10;99.90;;;;;;4997126;28;20448;-57
2021/05/12 00:31:33;;;;;;;0.80;0.80;;;10.10;99.90;;;;;;5003140;28;20466;-57
2021/05/12 00:33:59;;;;;;;0.77;0.77;;;10.10;99.90;;;;;;5000228;28;20424;-54
2021/05/12 00:36:25;;;;;;;0.70;0.70;;;10.10;99.90;;;;;;4995340;28;20423;-55
2021/05/12 00:38:51;;;;;;;0.80;0.80;;;10.10;99.90;;;;;;5001412;28;20439;-56
2021/05/12 00:41:17;;;;;;;1.87;1.10;;;10.00;99.90;;;;;;5007650;28;20505;-56
2021/05/12 00:43:42;;;;;;;0.90;0.73;;;10.00;99.90;;;;;;5020400;28;20634;-58
2021/05/12 00:46:09;;;;;;;0.80;0.80;;;10.00;99.90;;;;;;5007311;28;20181;-58
2021/05/12 00:48:34;;;;;;;1.30;0.80;;;10.00;99.90;;;;;;5005731;28;20176;-57
2021/05/12 00:51:00;;;;;;;0.77;0.77;;;10.00;99.90;;;;;;5003886;28;20469;-58
2021/05/12 00:53:26;;;;;;;0.80;0.80;;;10.00;99.90;;;;;;4999534;28;20181;-56
2021/05/12 00:55:52;;;;;;;0.70;0.70;;;10.00;99.90;;;;;;5002651;28;20440;-56
2021/05/12 00:58:18;;;;;;;0.70;0.70;;;10.00;99.90;;;;;;5004314;28;20188;-59
2021/05/12 01:00:44;;;;;;;0.70;0.70;;;10.00;99.90;;;;;;5010535;28;20274;-57
2021/05/12 01:03:10;;;;;;;0.90;0.90;;;10.00;99.90;;;;;;5004742;28;20184;-59
2021/05/12 01:05:35;;;;;;;2.00;0.70;;;10.00;99.90;;;;;;4999481;28;20436;-58
2021/05/12 01:08:03;;;;;;;0.90;0.90;;;10.00;99.90;;;;;;5002770;28;20431;-58
2021/05/12 01:10:29;;;;;;;0.83;0.83;;;10.00;99.90;;;;;;5008239;28;20666;-57
2021/05/12 01:12:55;;;;;;;0.90;0.90;;;10.00;99.90;;;;;;5007078;28;20448;-57
2021/05/12 01:15:21;;;;;;;0.80;0.80;;;10.00;99.90;;;;;;5007483;28;20435;-57
2021/05/12 01:17:47;;;;;;;0.80;0.80;;;10.00;99.90;;;;;;5009156;28;20557;-56
2021/05/12 01:20:13;;;;;;;1.10;0.90;;;9.90;99.90;;;;;;5006359;28;20212;-56
2021/05/12 01:22:40;;;;;;;0.80;0.80;;;9.90;99.90;;;;;;5004699;28;20440;-53
2021/05/12 01:25:09;;;;;;;2.30;0.90;;;9.90;99.90;;;;;;5004520;28;20933;-56
2021/05/12 01:27:35;;;;;;;0.90;0.90;;;9.90;99.90;;;;;;5006425;28;20431;-56
2021/05/12 01:30:00;;;;;;;0.80;0.80;;;9.90;99.90;;;;;;5008987;28;20532;-56
2021/05/12 01:32:35;;;;;;;0.80;0.80;;;9.90;99.90;;;;;;5008902;28;20184;-57
2021/05/12 01:35:09;;;;;;;0.80;0.80;;;9.90;99.90;;;;;;5003241;28;20449;-58
2021/05/12 01:37:35;;;;;;;0.80;0.80;;;9.80;99.90;;;;;;4999162;28;20792;-56
2021/05/12 01:40:05;;;;;;;2.27;0.90;;;9.90;99.90;;;;;;5002988;28;20466;-56
2021/05/12 01:42:31;;;;;;;1.00;0.80;;;9.90;99.90;;;;;;5023445;28;20912;-58
2021/05/12 01:45:07;;;;;;;0.83;0.83;;;9.90;99.90;;;;;;5006673;28;20530;-57
2021/05/12 01:47:32;;;;;;;1.10;1.00;;;9.90;99.90;;;;;;5004338;28;20325;-58
2021/05/12 01:50:04;;;;;;;0.80;0.80;;;9.90;99.90;;;;;;5005149;28;20941;-57
2021/05/12 01:52:29;;;;;;;0.90;0.80;;;9.90;99.90;;;;;;5004735;28;20188;-58
2021/05/12 01:54:55;;;;;;;0.93;0.83;;;9.90;99.90;;;;;;5003356;28;20505;-59
2021/05/12 01:57:21;;;;;;;0.90;0.90;;;9.90;99.90;;;;;;4999910;28;20196;-57
2021/05/12 01:59:46;;;;;;;1.17;0.80;;;9.80;99.90;;;;;;5000851;28;20219;-58
2021/05/12 02:02:12;;;;;;;0.97;0.87;;;9.80;99.90;;;;;;4998819;28;20219;-60
2021/05/12 02:04:39;;;;;;;1.83;0.90;;;9.80;99.90;;;;;;4998253;28;20181;-56
2021/05/12 02:07:04;;;;;;;2.33;0.97;;;9.80;99.90;;;;;;5002561;28;20568;-56
2021/05/12 02:09:37;;;;;;;0.90;0.90;;;9.80;99.90;;;;;;5002509;28;20635;-55
2021/05/12 02:12:03;;;;;;;1.00;1.00;;;9.80;99.90;;;;;;5005756;28;20335;-56
2021/05/12 02:14:29;;;;;;;1.23;0.90;;;9.80;99.90;;;;;;5002410;28;20443;-58
2021/05/12 02:16:55;;;;;;;1.90;0.97;;;9.80;99.90;;;;;;5004276;28;20439;-57
2021/05/12 02:19:21;;;;;;;0.90;0.90;;;9.80;99.90;;;;;;5004137;28;20463;-58
2021/05/12 02:21:46;;;;;;;1.50;1.10;;;9.80;99.90;;;;;;5005687;28;20306;-56
2021/05/12 02:24:12;;;;;;;1.07;1.00;;;9.80;99.90;;;;;;5005149;28;20184;-59
2021/05/12 02:26:37;;;;;;;1.30;1.13;;;9.80;99.90;;;;;;5004749;28;20185;-58
2021/05/12 02:29:03;;;;;;;1.10;1.00;;;9.80;99.90;;;;;;5004702;28;20184;-56
2021/05/12 02:31:29;;;;;;;1.30;1.20;;;9.80;99.90;;;;;;5004052;28;20669;-57
2021/05/12 02:33:55;;;;;;;1.53;1.30;;;9.70;99.90;;;;;;5000521;28;20192;-57
2021/05/12 02:36:20;;;;;;;2.00;1.20;;;9.70;99.90;;;;;;4998614;28;20184;-58
2021/05/12 02:38:46;;;;;;;1.40;1.00;;;9.70;99.90;;;;;;5003893;28;20181;-56
2021/05/12 02:41:12;;;;;;;1.10;1.00;;;9.70;99.90;;;;;;4998394;28;20204;-57
2021/05/12 02:43:38;;;;;;;1.27;1.17;;;9.70;99.90;;;;;;5009199;28;20543;-57
2021/05/12 02:46:03;;;;;;;3.60;1.30;;;9.70;99.90;;;;;;5008539;28;20180;-56
2021/05/12 02:48:29;;;;;;;1.30;1.23;;;9.70;99.90;;;;;;4996594;28;20196;-56
2021/05/12 02:50:57;;;;;;;1.73;1.30;;;9.70;99.90;;;;;;4992371;28;20201;-56
2021/05/12 02:53:23;;;;;;;5.23;1.60;;;9.70;99.90;;;;;;4998269;28;20572;-57
2021/05/12 02:55:49;;;;;;;1.90;1.70;;;9.70;99.90;;;;;;5001540;28;20442;-56
2021/05/12 02:58:15;;;;;;;1.30;1.20;;;9.70;99.90;;;;;;5005524;28;20200;-58
2021/05/12 03:00:42;;;;;;;1.20;1.20;;;9.70;99.90;;;;;;5004667;28;20664;-56
2021/05/12 03:03:09;;;;;;;3.47;1.30;;;9.70;99.90;;;;;;5001290;28;20432;-56
2021/05/12 03:05:36;;;;;;;1.30;1.20;;;9.70;99.90;;;;;;4998567;28;20467;-56
2021/05/12 03:08:02;;;;;;;1.40;1.30;;;9.70;99.90;;;;;;5003065;28;20431;-58
2021/05/12 03:10:31;;;;;;;2.97;1.47;;;9.70;99.90;;;;;;5008249;28;20475;-56
2021/05/12 03:12:57;;;;;;;3.40;1.80;;;9.70;99.90;;;;;;5006388;28;20435;-57
2021/05/12 03:15:25;;;;;;;1.93;1.70;;;9.60;99.90;;;;;;5005342;28;20576;-57
2021/05/12 03:17:56;;;;;;;1.97;1.67;;;9.60;99.90;;;;;;5006206;28;20431;-57
2021/05/12 03:20:23;;;;;;;3.57;1.77;;;9.60;99.90;;;;;;5003105;28;20490;-57
2021/05/12 03:22:49;;;;;;;1.60;1.50;;;9.60;99.90;;;;;;5001804;28;20439;-56
2021/05/12 03:25:16;;;;;;;2.20;1.80;;;9.60;99.90;;;;;;4999813;28;20459;-59
2021/05/12 03:27:42;;;;;;;1.67;1.57;;;9.60;99.90;;;;;;5005634;28;20559;-56
2021/05/12 03:30:11;;;;;;;1.80;1.70;;;9.60;99.90;;;;;;5016851;28;20454;-56
2021/05/12 03:32:37;;;;;;;1.47;1.37;;;9.60;99.90;;;;;;5005733;28;20439;-57
2021/05/12 03:35:05;;;;;;;1.73;1.33;;;9.60;99.90;;;;;;5002949;28;20614;-56
2021/05/12 03:37:33;;;;;;;3.00;1.80;;;9.60;99.90;;;;;;5003767;28;20653;-59
2021/05/12 03:39:59;;;;;;;2.90;1.67;;;9.60;99.90;;;;;;5011670;28;20584;-55
2021/05/12 03:42:24;;;;;;;5.30;1.80;;;9.60;99.90;;;;;;5004152;28;20631;-57
2021/05/12 03:44:50;;;;;;;2.20;1.33;;;9.50;99.90;;;;;;5000800;28;20183;-56
2021/05/12 03:47:16;;;;;;;2.43;1.27;;;9.50;99.90;;;;;;5008370;28;21217;-57
2021/05/12 03:49:41;;;;;;;1.33;1.23;;;9.50;99.90;;;;;;5001570;28;20210;-56
2021/05/12 03:52:07;;;;;;;1.10;1.10;;;9.50;99.90;;;;;;5003483;28;20203;-56
2021/05/12 03:54:33;;;;;;;1.20;1.20;;;9.50;99.90;;;;;;5004519;28;20255;-56
2021/05/12 03:56:58;;;;;;;3.57;1.30;;;9.50;99.90;;;;;;4994072;28;20184;-58
2021/05/12 03:59:24;;;;;;;1.90;1.10;;;9.50;99.90;;;;;;5003218;28;20204;-57
2021/05/12 04:01:50;;;;;;;2.73;1.20;;;9.40;99.90;;;;;;5002390;28;20180;-57
2021/05/12 04:04:17;;;;;;;1.70;1.20;;;9.40;99.90;;;;;;4999721;28;20180;-56
2021/05/12 04:06:45;;;;;;;1.60;1.50;;;9.40;99.90;;;;;;5003382;28;20184;-56
2021/05/12 04:09:11;;;;;;;3.63;1.27;;;9.50;99.90;;;;;;5003886;28;20448;-58
2021/05/12 04:11:37;;;;;;;1.30;1.20;;;9.50;99.90;;;;;;5007061;28;20457;-56
2021/05/12 04:14:03;;;;;;;1.27;1.17;;;9.50;99.90;;;;;;4999043;28;20432;-57
2021/05/12 04:16:31;;;;;;;1.47;1.30;;;9.40;99.90;;;;;;5000279;28;20589;-55
2021/05/12 04:18:57;;;;;;;1.43;1.33;;;9.40;99.90;;;;;;5006844;28;20462;-56
2021/05/12 04:21:22;;;;;;;1.27;0.97;;;9.40;99.90;;;;;;5009528;28;20971;-57
2021/05/12 04:23:48;;;;;;;1.10;1.00;;;9.50;99.90;;;;;;5004109;28;22192;-54
2021/05/12 04:26:14;;;;;;;4.90;2.77;;;9.40;99.90;;;;;;5017266;28;20195;-56
2021/05/12 04:28:39;;;;;;;1.10;1.00;;;9.40;99.90;;;;;;5001186;28;20227;-57
2021/05/12 04:31:05;;;;;;;0.87;0.87;;;9.40;99.90;;;;;;5005298;28;20193;-56
2021/05/12 04:33:30;;;;;;;1.47;0.90;;;9.40;99.90;;;;;;5000569;28;20203;-57
2021/05/12 04:35:56;;;;;;;1.10;1.00;;;9.40;99.90;;;;;;5001568;28;20638;-57
2021/05/12 04:38:22;;;;;;;1.13;0.80;;;9.40;99.90;;;;;;5002652;28;20247;-57
2021/05/12 04:40:48;;;;;;;0.80;0.80;;;9.40;99.90;;;;;;5001694;28;20258;-57
2021/05/12 04:43:13;;;;;;;1.00;1.00;;;9.50;99.90;;;;;;5003108;28;20283;-61
2021/05/12 04:45:39;;;;;;;1.07;1.07;;;9.40;99.90;;;;;;5001554;28;20278;-59
2021/05/12 04:48:05;;;;;;;0.93;0.93;;;9.40;99.90;;;;;;4995764;28;20521;-58
2021/05/12 04:50:32;;;;;;;0.80;0.80;;;9.40;99.90;;;;;;4992820;28;20224;-58
2021/05/12 04:52:59;;;;;;;0.70;0.70;;;9.40;99.90;;;;;;4997031;28;20536;-57
2021/05/12 04:55:25;;;;;;;0.90;0.90;;;9.30;99.90;;;;;;5005029;28;20574;-56
2021/05/12 04:57:50;;;;;;;0.73;0.73;;;9.30;99.90;;;;;;5000946;28;20493;-57
2021/05/12 05:00:19;;;;;;;0.97;0.97;;;9.30;99.90;;;;;;4997886;28;20990;-58
2021/05/12 05:02:45;;;;;;;0.87;0.80;;;9.30;99.90;;;;;;5000501;28;20187;-56
2021/05/12 05:05:14;;;;;;;0.83;0.83;;;9.30;99.90;;;;;;5000339;28;20431;-60
2021/05/12 05:07:39;;;;;;;1.13;0.87;;;9.40;99.90;;;;;;4993741;28;20852;-56
2021/05/12 05:10:06;;;;;;;1.23;0.90;;;9.40;99.90;;;;;;5031908;22;21072;-59
2021/05/12 05:12:32;;;;;;;1.63;1.27;;;9.40;99.90;;;;;;5025812;28;20703;-60
2021/05/12 05:14:58;;;;;;;0.83;0.70;;;9.40;99.90;;;;;;5024597;28;20526;-59
2021/05/12 05:17:25;;;;;;;0.83;0.83;;;9.40;99.90;;;;;;5022020;28;20179;-59
2021/05/12 05:19:51;;;;;;;0.80;0.80;;;9.40;99.90;;;;;;5015587;28;20208;-61
2021/05/12 05:22:18;;;;;;;1.40;0.80;;;9.30;99.90;;;;;;5014575;28;20437;-60
2021/05/12 05:24:44;;;;;;;1.47;1.00;;;9.30;99.90;;;;;;5021928;28;20430;-60
2021/05/12 05:27:10;;;;;;;1.20;1.00;;;9.30;99.90;;;;;;5018915;28;20431;-59
2021/05/12 05:29:36;;;;;;;1.20;1.10;;;9.20;99.90;;;;;;5021525;28;20200;-60
2021/05/12 05:32:01;;;;;;;1.00;1.00;;;9.20;99.90;;;;;;5012639;28;21305;-59
2021/05/12 05:34:27;;;;;;;1.90;1.00;;;9.20;99.90;;;;;;5018588;28;20522;-59
2021/05/12 05:36:53;;;;;;;1.53;1.40;;;9.20;99.90;;;;;;5026196;28;20186;-59
2021/05/12 05:39:18;;;;;;;1.17;1.07;;;9.10;99.90;;;;;;5025435;28;20201;-57
2021/05/12 05:41:44;;;;;;;1.70;1.27;;;9.10;99.90;;;;;;5021841;28;20195;-61
2021/05/12 05:44:09;;;;;;;2.60;1.30;;;9.10;99.90;;;;;;5026995;28;20190;-59
2021/05/12 05:46:35;;;;;;;2.27;1.50;;;9.00;99.90;;;;;;5025903;28;20636;-59
2021/05/12 05:49:01;;;;;;;2.57;1.30;;;9.00;99.90;;;;;;5016315;28;20192;-60
2021/05/12 05:51:26;;;;;;;2.87;1.80;;;8.90;99.90;;;;;;5016243;28;20220;-59
2021/05/12 05:53:52;;;;;;;2.87;1.40;;;8.90;99.90;;;;;;5021286;28;20245;-58
2021/05/12 05:56:18;;;;;;;1.67;1.57;;;8.90;99.90;;;;;;5020433;28;20188;-58
2021/05/12 05:58:43;;;;;;;1.50;1.40;;;8.90;99.90;;;;;;5026346;28;20211;-59
2021/05/12 06:01:09;;;;;;;4.33;1.20;;;8.90;99.90;;;;;;5021474;28;20692;-60
2021/05/12 06:03:34;;;;;;;2.40;1.40;;;8.90;99.90;;;;;;5020128;28;20701;-61
2021/05/12 06:06:00;;;;;;;6.10;1.80;;;8.90;99.90;;;;;;5021739;28;20176;-62
2021/05/12 06:08:26;;;;;;;2.10;1.57;;;9.00;99.90;;;;;;5021140;28;20659;-59
2021/05/12 06:10:51;;;;;;;2.30;1.60;;;9.00;99.90;;;;;;5024172;28;20766;-59
2021/05/12 06:13:17;;;;;;;3.83;1.63;;;9.00;99.90;;;;;;5029050;28;20314;-67
2021/05/12 06:15:43;;;;;;;1.90;1.53;;;9.10;99.90;;;;;;5036139;28;20245;-61
2021/05/12 06:18:08;;;;;;;1.03;1.03;;;9.20;99.90;;;;;;5012505;28;20195;-61
2021/05/12 06:20:37;;;;;;;1.20;1.20;;;9.20;99.90;;;;;;5012485;28;20214;-59
2021/05/12 06:23:04;;;;;;;2.77;1.43;;;9.20;99.90;;;;;;5016071;28;20184;-59
2021/05/12 06:25:30;;;;;;;2.03;1.40;;;9.20;99.90;;;;;;5024968;28;20443;-62
2021/05/12 06:27:55;;;;;;;3.57;1.70;;;9.20;99.90;;;;;;5024304;28;20427;-59
2021/05/12 06:30:21;;;;;;;1.30;1.20;;;9.20;99.90;;;;;;5021647;28;20222;-58
2021/05/12 06:32:50;;;;;;;1.33;1.23;;;9.20;99.90;;;;;;5018772;28;20221;-59
2021/05/12 06:35:16;;;;;;;1.50;1.40;;;9.20;99.90;;;;;;5018123;28;20445;-60
2021/05/12 06:37:42;;;;;;;1.80;1.60;;;9.10;99.90;;;;;;5012994;28;20525;-60
2021/05/12 06:40:08;;;;;;;4.87;1.73;;;9.10;99.90;;;;;;5028807;28;20623;-60
2021/05/12 06:42:34;;;;;;;2.50;1.80;;;9.20;99.90;;;;;;5027732;28;20186;-59
2021/05/12 06:45:00;;;;;;;4.00;1.97;;;9.20;99.90;;;;;;5028836;28;20845;-60
2021/05/12 06:47:25;;;;;;;1.73;1.57;;;9.20;99.90;;;;;;5027989;28;20966;-60
2021/05/12 06:49:51;;;;;;;3.47;2.10;;;9.30;99.90;;;;;;5010998;28;20234;-60
2021/05/12 06:52:17;;;;;;;4.13;1.43;;;9.30;99.90;;;;;;5021616;28;20187;-59
2021/05/12 06:54:42;;;;;;;2.37;1.60;;;9.20;99.90;;;;;;5024951;28;20731;-61
2021/05/12 06:57:08;;;;;;;3.27;1.53;;;9.20;99.90;;;;;;5022277;28;20258;-60
2021/05/12 06:59:34;;;;;;;3.67;1.97;;;9.20;99.90;;;;;;5023845;28;20622;-60
2021/05/12 07:01:59;;;;;;;4.17;1.90;;;9.20;99.90;;;;;;5018996;28;20187;-59
2021/05/12 07:04:25;;;;;;;3.43;2.00;;;9.20;99.90;;;;;;5021121;28;20176;-64
2021/05/12 07:06:50;;;;;;;6.90;2.20;;;9.20;99.90;;;;;;5003254;28;20641;-59
2021/05/12 07:09:16;;;;;;;2.07;1.87;;;9.20;99.90;;;;;;5014704;28;20594;-59
2021/05/12 07:11:42;;;;;;;2.10;1.90;;;9.20;99.90;;;;;;5013699;28;20184;-59
2021/05/12 07:14:08;;;;;;;3.60;2.00;;;9.10;99.90;;;;;;5019332;28;20179;-60
2021/05/12 07:16:34;;;;;;;2.63;1.37;;;9.10;99.90;;;;;;5019124;28;20663;-60
2021/05/12 07:19:00;;;;;;;3.83;1.90;;;9.10;99.90;;;;;;5022029;28;20504;-61
2021/05/12 07:21:26;;;;;;;3.50;1.80;;;9.10;99.90;;;;;;5020814;28;20810;-61
2021/05/12 07:23:52;;;;;;;3.90;1.70;;;9.10;99.90;;;;;;5016823;28;20585;-61
2021/05/12 07:26:18;;;;;;;3.23;1.30;;;9.20;99.90;;;;;;5020660;28;20426;-62
2021/05/12 07:28:45;;;;;;;1.40;1.30;;;9.20;99.90;;;;;;5024848;28;20465;-58
2021/05/12 07:31:11;;;;;;;3.60;1.40;;;9.20;99.90;;;;;;5026517;28;20176;-59
2021/05/12 07:33:37;;;;;;;2.10;1.90;;;9.20;99.90;;;;;;5026515;28;20465;-59
2021/05/12 07:36:03;;;;;;;1.77;1.57;;;9.20;99.90;;;;;;5023474;28;20419;-60
2021/05/12 07:38:29;;;;;;;2.97;2.10;;;9.20;99.90;;;;;;5019976;28;20191;-59
2021/05/12 07:40:58;;;;;;;2.23;1.70;;;9.20;99.90;;;;;;5024938;28;20466;-60
2021/05/12 07:43:23;;;;;;;1.67;1.33;;;9.30;99.90;;;;;;5025289;28;20168;-59
2021/05/12 07:45:49;;;;;;;5.47;1.60;;;9.30;99.90;;;;;;5025720;28;20514;-59
2021/05/12 07:48:15;;;;;;;2.60;1.43;;;9.30;99.90;;;;;;5027180;28;20266;-57
2021/05/12 07:50:41;;;;;;;3.10;1.70;;;9.30;99.90;;;;;;5016539;28;20185;-60
2021/05/12 07:53:08;;;;;;;1.07;1.07;;;9.30;99.90;;;;;;5031449;28;20434;-59
2021/05/12 07:55:35;;;;;;;4.23;1.50;;;9.40;99.90;;;;;;5030493;28;20167;-60
2021/05/12 07:58:01;;;;;;;1.30;1.20;;;9.40;99.90;;;;;;5022313;28;20453;-61
2021/05/12 08:00:30;;;;;;;4.13;2.00;;;9.40;99.90;;;;;;5043129;28;20541;-59
2021/05/12 08:02:56;;;;;;;1.60;1.37;;;9.50;99.90;;;;;;5029610;28;20791;-59
2021/05/12 08:05:21;;;;;;;1.70;1.60;;;9.40;99.90;;;;;;5023147;28;20427;-59
2021/05/12 08:07:47;;;;;;;2.90;1.40;;;9.50;99.90;;;;;;5020054;28;20179;-58
2021/05/12 08:10:13;;;;;;;1.60;1.50;;;9.50;99.90;;;;;;5018773;28;20219;-58
2021/05/12 08:12:38;;;;;;;1.30;1.20;;;9.50;99.90;;;;;;5020633;28;20183;-59
2021/05/12 08:15:05;;;;;;;1.10;1.10;;;9.50;99.90;;;;;;5026575;28;20215;-58
2021/05/12 08:17:31;;;;;;;2.50;1.70;;;9.50;99.90;;;;;;5025513;28;20238;-59
2021/05/12 08:19:59;;;;;;;1.50;1.40;;;9.50;99.90;;;;;;5022652;28;20466;-59
2021/05/12 08:22:25;;;;;;;2.40;1.40;;;9.50;99.90;;;;;;5021730;28;20203;-57
2021/05/12 08:24:51;;;;;;;1.70;1.53;;;9.60;99.90;;;;;;5031071;28;20461;-58
2021/05/12 08:27:17;;;;;;;2.97;1.63;;;9.70;99.90;;;;;;5019867;28;20181;-58
2021/05/12 08:29:43;;;;;;;1.67;1.57;;;9.80;99.90;;;;;;5020972;28;20563;-60
2021/05/12 08:32:11;;;;;;;1.57;1.47;;;9.90;99.90;;;;;;5018723;28;20620;-59
2021/05/12 08:34:37;;;;;;;4.23;2.27;;;10.00;99.90;;;;;;5017170;28;20441;-59
2021/05/12 08:37:02;;;;;;;3.27;1.80;;;10.10;99.90;;;;;;5016578;28;20759;-59
2021/05/12 08:39:28;;;;;;;2.60;1.80;;;10.20;99.90;;;;;;5018983;28;20885;-59
2021/05/12 08:41:55;;;;;;;5.17;1.60;;;10.20;99.90;;;;;;5017852;28;20440;-59
2021/05/12 08:44:21;;;;;;;2.93;1.57;;;10.40;99.90;;;;;;5020905;28;20430;-59
2021/05/12 08:46:50;;;;;;;2.17;1.50;;;10.50;99.90;;;;;;5022672;28;20435;-60
2021/05/12 08:49:16;;;;;;;3.13;1.67;;;10.60;99.90;;;;;;5020829;28;20913;-63
2021/05/12 08:51:43;;;;;;;1.80;1.70;;;10.70;99.90;;;;;;5024267;28;20438;-58
2021/05/12 08:54:11;;;;;;;3.97;2.03;;;10.80;99.90;;;;;;5023341;28;20438;-58
2021/05/12 08:56:36;;;;;;;6.07;1.57;;;10.80;99.90;;;;;;5025653;28;20491;-58
2021/05/12 08:59:03;;;;;;;4.47;1.53;;;10.90;99.90;;;;;;5026597;28;20450;-59
2021/05/12 09:01:29;;;;;;;3.93;1.97;;;11.00;99.10;;;;;;5028927;28;20465;-59
2021/05/12 09:03:55;;;;;;;5.30;1.90;;;11.10;99.30;;;;;;5025409;28;20442;-59
2021/05/12 09:06:21;;;;;;;6.37;2.10;;;11.20;99.50;;;;;;5032144;28;20437;-58
2021/05/12 09:08:47;;;;;;;2.23;2.00;;;11.30;98.60;;;;;;5027697;28;20465;-59
2021/05/12 09:11:16;;;;;;;2.50;1.80;;;11.30;97.40;;;;;;5034717;28;20442;-58
2021/05/12 09:13:47;;;;;;;4.93;2.03;;;11.30;97.80;;;;;;5032221;28;20497;-60
2021/05/12 09:16:19;;;;;;;2.50;1.60;;;11.40;98.40;;;;;;5028088;28;20545;-59
2021/05/12 09:18:46;;;;;;;5.17;1.97;;;11.40;97.30;;;;;;5028278;28;21027;-58
2021/05/12 09:21:13;;;;;;;2.80;2.13;;;11.40;97.00;;;;;;5043744;28;20466;-59
2021/05/12 09:23:40;;;;;;;1.83;1.50;;;11.50;97.00;;;;;;5044092;28;20434;-59
2021/05/12 09:26:15;;;;;;;4.07;1.40;;;11.50;96.40;;;;;;5038469;28;20427;-64
2021/05/12 09:28:41;;;;;;;3.93;1.83;;;11.40;96.00;;;;;;5035341;28;20454;-61
2021/05/12 09:31:18;;;;;;;2.87;1.90;;;11.30;95.30;;;;;;5036366;28;20438;-62
2021/05/12 09:33:46;;;;;;;2.87;1.90;;;11.20;96.30;;;;;;5035049;28;20426;-65
2021/05/12 09:36:28;;;;;;;2.40;1.70;;;11.20;96.60;;;;;;5040821;28;20445;-60
2021/05/12 09:38:55;;;;;;;6.97;2.10;;;11.30;96.70;;;;;;5025605;28;21009;-59
2021/05/12 09:41:31;;;;;;;2.13;1.60;;;11.30;95.90;;;;;;5023119;28;20736;-67
2021/05/12 09:43:57;;;;;;;4.53;2.23;;;11.40;96.10;;;;;;5026497;28;20803;-59
2021/05/12 09:46:25;;;;;;;3.63;1.73;;;11.40;96.20;;;;;;5022696;28;20812;-60
2021/05/12 09:49:00;;;;;;;7.77;2.00;;;11.40;95.00;;;;;;5020952;28;21120;-56
2021/05/12 09:51:27;;;;;;;2.87;1.77;;;11.40;95.80;;;;;;5039648;28;20441;-59
2021/05/12 09:54:06;;;;;;;2.37;2.17;;;11.40;96.70;;;;;;5021691;28;20524;-59
2021/05/12 09:56:37;;;;;;;2.20;1.70;;;11.40;96.60;;;;;;5032892;28;20420;-59
2021/05/12 09:59:28;;;;;;;3.00;2.20;;;11.40;96.60;;;;;;5018396;28;20454;-59
2021/05/12 10:01:55;;;;;;;4.10;1.97;;;11.40;97.00;;;;;;5026552;28;20690;-60
2021/05/12 10:04:38;;;;;;;3.00;1.93;;;11.50;97.00;;;;;;5019059;28;20418;-58
2021/05/12 10:07:17;;;;;;;7.13;2.03;;;11.50;96.90;;;;;;5009753;28;20463;-60
2021/05/12 10:09:44;;;;;;;2.40;1.97;;;11.50;96.80;;;;;;5030775;28;20461;-59
2021/05/12 10:12:16;;;;;;;3.30;1.80;;;11.50;95.70;;;;;;5035461;28;20489;-60
2021/05/12 10:14:46;;;;;;;2.30;2.10;;;11.50;95.90;;;;;;5025583;28;20426;-59
2021/05/12 10:17:14;;;;;;;14.50;2.20;;;11.50;95.40;;;;;;5012615;28;21048;-59
2021/05/12 10:19:40;;;;;;;4.13;2.00;;;11.50;94.50;;;;;;5023703;28;21112;-60
2021/05/12 10:22:07;;;;;;;4.30;2.33;;;11.50;94.50;;;;;;5027212;28;20431;-57
2021/05/12 10:24:36;;;;;;;3.23;1.90;;;11.60;94.50;;;;;;5031368;28;20922;-60
2021/05/12 10:27:16;;;;;;;3.20;2.10;;;11.60;94.00;;;;;;5021935;28;20525;-60
2021/05/12 10:29:46;;;;;;;6.97;2.00;;;11.60;94.60;;;;;;5024610;28;20464;-59
2021/05/12 10:32:23;;;;;;;7.33;2.00;;;11.60;95.00;;;;;;5029429;28;20903;-61
2021/05/12 10:35:02;;;;;;;9.20;2.83;;;11.70;94.80;;;;;;5026496;28;20445;-60
2021/05/12 10:37:30;;;;;;;5.00;1.93;;;11.60;94.10;;;;;;5021636;28;20432;-61
2021/05/12 10:40:14;;;;;;;2.87;2.13;;;11.60;94.50;;;;;;5022912;28;20471;-61
2021/05/12 10:43:03;;;;;;;4.57;2.00;;;11.60;94.10;;;;;;5022731;28;20469;-61
2021/05/12 10:48:30;;;;;;;5.13;2.40;;;11.60;94.80;;;;;;5021997;28;20426;-60
2021/05/12 10:50:57;;;;;;;5.00;2.50;;;11.60;94.40;;;;;;5020493;28;20445;-60
2021/05/12 10:53:32;;;;;;;3.50;2.20;;;11.60;94.90;;;;;;5020953;28;20450;-60
2021/05/12 10:55:57;;;;;;;2.37;2.07;;;11.60;95.20;;;;;;5023468;28;20433;-61
2021/05/12 10:58:31;;;;;;;4.53;1.90;;;11.60;95.20;;;;;;5018784;28;20449;-60
2021/05/12 11:01:01;;;;;;;2.97;1.93;;;11.60;96.30;;;;;;5026514;28;20199;-62
2021/05/12 11:03:50;;;;;;;3.63;1.80;;;11.60;96.90;;;;;;5016682;28;20550;-60
2021/05/12 11:06:23;;;;;;;3.43;2.30;;;11.60;96.60;;;;;;5010584;28;20434;-60
2021/05/12 11:09:01;;;;;;;7.77;1.73;;;11.70;96.50;;;;;;5010349;28;20527;-58
2021/05/12 11:11:27;;;;;;;4.00;2.10;;;11.70;96.70;;;;;;5031757;22;20505;-54
2021/05/12 11:14:28;;;;;;;21.93;6.20;;;11.80;96.90;;;;;;5032976;28;20733;-56
2021/05/12 11:17:08;;;;;;;83.77;29.63;;;11.90;96.80;;;;;;5030970;28;20232;-57
2021/05/12 11:22:38;;;;;;;6.13;2.20;;;11.90;95.70;;;;;;5016657;28;21745;-55
2021/05/12 11:32:38;;;;;;;3.90;2.10;;;12.10;95.80;;;;;;5017238;28;20715;-55
2021/05/12 11:35:08;;;;;;;5.03;1.90;;;12.10;94.80;;;;;;5035997;28;20434;-58
2021/05/12 11:37:37;;;;;;;4.10;2.40;;;12.20;93.90;;;;;;5016528;28;20993;-59
2021/05/12 11:40:04;;;;;;;3.43;2.37;;;12.20;93.70;;;;;;5014803;28;20634;-55
2021/05/12 11:42:32;;;;;;;3.43;2.10;;;12.20;94.70;;;;;;5015780;28;20535;-55
2021/05/12 11:45:21;;;;;;;5.53;2.90;;;12.30;94.50;;;;;;5010825;28;20977;-55
2021/05/12 11:48:06;;;;;;;5.60;2.50;;;12.40;93.80;;;;;;5015992;28;20427;-55
2021/05/12 11:50:35;;;;;;;6.93;2.40;;;12.40;94.20;;;;;;5012376;28;20846;-57
2021/05/12 11:53:01;;;;;;;6.30;2.47;;;12.50;94.50;;;;;;5016646;28;21031;-57
2021/05/12 11:55:33;;;;;;;3.77;2.00;;;12.50;93.70;;;;;;5018054;28;20427;-57
2021/05/12 11:58:00;;;;;;;3.30;2.10;;;12.60;93.40;;;;;;5017326;28;20915;-54
2021/05/12 12:00:31;;;;;;;2.80;1.60;;;12.70;93.70;;;;;;5006081;28;21265;-58
2021/05/12 12:03:01;;;;;;;4.40;1.73;;;12.70;93.40;;;;;;5009908;28;20970;-57
2021/05/12 12:05:38;;;;;;;5.27;2.00;;;12.80;93.50;;;;;;5010158;28;20437;-57
2021/05/12 12:08:15;;;;;;;6.50;2.30;;;12.90;93.70;;;;;;5024450;28;20913;-56
2021/05/12 12:10:42;;;;;;;5.00;2.30;;;12.90;93.10;;;;;;5008635;28;20569;-58
2021/05/12 12:13:14;;;;;;;4.97;1.83;;;12.90;92.60;;;;;;5007453;28;20527;-56
2021/05/12 12:15:45;;;;;;;5.80;2.20;;;13.00;92.30;;;;;;5012096;28;20450;-56
2021/05/12 12:18:11;;;;;;;3.33;1.90;;;13.00;92.30;;;;;;5011311;28;20434;-55
2021/05/12 12:20:39;;;;;;;3.73;2.03;;;13.00;92.10;;;;;;5010278;28;20458;-58
2021/05/12 12:23:06;;;;;;;6.47;2.30;;;13.00;91.60;;;;;;5011874;28;20762;-57
2021/05/12 12:25:53;;;;;;;4.73;2.03;;;13.00;91.80;;;;;;5016538;28;20441;-54
2021/05/12 12:28:17;;;;;;;3.23;1.80;;;13.10;91.40;;;;;;5007966;28;20433;-55
2021/05/12 12:30:43;;;;;;;6.10;2.07;;;13.20;90.60;;;;;;5014028;28;20430;-57
2021/05/12 12:33:09;;;;;;;5.43;1.97;;;13.20;90.60;;;;;;5012813;28;20165;-54
2021/05/12 12:35:35;;;;;;;2.47;1.90;;;13.20;91.00;;;;;;5012862;28;20434;-56
2021/05/12 12:38:17;;;;;;;1.90;1.80;;;13.30;91.20;;;;;;5009652;28;20183;-56
2021/05/12 12:40:46;;;;;;;2.87;1.80;;;13.40;91.20;;;;;;5010050;28;20207;-56
2021/05/12 12:43:12;;;;;;;2.00;1.77;;;13.40;90.80;;;;;;5012009;28;20426;-56
2021/05/12 12:45:42;;;;;;;3.80;2.00;;;13.40;90.30;;;;;;5016494;28;21066;-58
2021/05/12 12:48:08;;;;;;;6.83;2.30;;;13.50;90.40;;;;;;5012560;28;20182;-55
2021/05/12 12:50:35;;;;;;;1.90;1.67;;;13.50;89.80;;;;;;5014414;28;20427;-56
2021/05/12 12:53:05;;;;;;;2.27;1.80;;;13.60;90.50;;;;;;5011509;28;21189;-57
2021/05/12 12:55:36;;;;;;;2.27;2.00;;;13.70;90.10;;;;;;5015379;28;20512;-55
2021/05/12 12:58:11;;;;;;;4.07;2.13;;;13.80;83.50;;;;;;5015131;28;20443;-55
2021/05/12 13:00:38;;;;;;;4.57;2.03;;;13.90;85.40;;;;;;5016828;28;20977;-58
2021/05/12 13:03:18;;;;;;;4.27;2.10;;;14.00;85.40;;;;;;5010948;28;20493;-56
2021/05/12 13:05:59;;;;;;;8.57;2.20;;;14.10;84.20;;;;;;5021939;28;20434;-56
2021/05/12 13:08:28;;;;;;;5.67;2.50;;;14.10;82.70;;;;;;5022641;28;20422;-57
2021/05/12 13:11:08;;;;;;;3.33;2.23;;;14.20;83.50;;;;;;5021671;28;20562;-56
2021/05/12 13:13:35;;;;;;;3.00;2.00;;;14.20;83.50;;;;;;5016330;28;20801;-58